createdAt,value
2022-11-28T00:01:21.585Z,89.66
2022-11-28T00:03:48.957Z,90.93
2022-11-28T00:06:16.601Z,91.81
2022-11-28T00:08:44.338Z,92.39
2022-11-28T00:11:14.049Z,92.27
2022-11-28T00:13:41.836Z,92.04
2022-11-28T00:16:13.251Z,92.69
2022-11-28T00:18:40.248Z,91.98
2022-11-28T00:21:09.918Z,91.36
2022-11-28T00:23:36.905Z,90.63
2022-11-28T00:26:12.725Z,91.26
2022-11-28T00:28:39.836Z,91.63
2022-11-28T00:31:11.794Z,91.98
2022-11-28T00:33:38.707Z,92.17
2022-11-28T00:36:06.450Z,92.76
2022-11-28T00:38:33.367Z,92.98
2022-11-28T00:41:21.202Z,94.33
2022-11-28T00:43:49.928Z,93.56
2022-11-28T00:46:18.744Z,93.40
2022-11-28T00:48:46.434Z,93.48
2022-11-28T00:51:14.699Z,93.67
2022-11-28T00:53:43.264Z,94.21
2022-11-28T00:56:12.732Z,94.77
2022-11-28T00:58:40.612Z,94.89
2022-11-28T01:01:13.023Z,94.36
2022-11-28T01:03:40.232Z,93.08
2022-11-28T01:06:07.695Z,93.03
2022-11-28T01:08:35.066Z,92.51
2022-11-28T01:11:02.767Z,92.55
2022-11-28T01:13:30.015Z,92.15
2022-11-28T01:15:58.983Z,92.97
2022-11-28T01:18:26.056Z,92.40
2022-11-28T01:20:52.936Z,91.96
2022-11-28T01:23:19.882Z,92.25
2022-11-28T01:25:46.829Z,91.97
2022-11-28T01:28:13.859Z,91.72
2022-11-28T01:30:41.029Z,91.63
2022-11-28T01:33:07.925Z,91.15
2022-11-28T01:35:34.841Z,90.92
2022-11-28T01:38:01.783Z,90.71
2022-11-28T01:40:28.708Z,90.44
2022-11-28T01:42:55.670Z,90.84
2022-11-28T01:45:29.569Z,90.92
2022-11-28T01:48:00.881Z,89.82
2022-11-28T01:50:30.197Z,90.33
2022-11-28T01:53:01.979Z,90.61
2022-11-28T01:55:33.864Z,90.26
2022-11-28T01:58:01.735Z,89.98
2022-11-28T02:00:28.800Z,89.48
2022-11-28T02:03:26.384Z,89.49
2022-11-28T02:05:54.563Z,89.80
2022-11-28T02:08:32.469Z,89.39
2022-11-28T02:11:39.986Z,89.70
2022-11-28T02:14:53.050Z,89.29
2022-11-28T02:17:38.824Z,89.50
2022-11-28T02:20:35.273Z,89.70
2022-11-28T02:23:33.889Z,89.77
2022-11-28T02:26:25.091Z,89.36
2022-11-28T02:29:13.489Z,89.04
2022-11-28T02:32:04.903Z,88.41
2022-11-28T02:34:55.405Z,89.12
2022-11-28T02:37:50.957Z,89.15
2022-11-28T02:40:36.831Z,88.40
2022-11-28T02:43:33.206Z,87.73
2022-11-28T02:46:18.428Z,88.94
2022-11-28T02:48:57.457Z,88.23
2022-11-28T02:51:46.398Z,88.01
2022-11-28T02:54:16.124Z,88.40
2022-11-28T02:56:53.877Z,89.28
2022-11-28T02:59:30.193Z,89.09
2022-11-28T03:01:58.328Z,89.31
2022-11-28T03:04:47.231Z,89.50
2022-11-28T03:07:37.106Z,89.31
2022-11-28T03:10:19.514Z,88.96
2022-11-28T03:12:46.386Z,89.16
2022-11-28T03:15:18.889Z,89.26
2022-11-28T03:18:21.239Z,88.40
2022-11-28T03:20:56.176Z,88.93
2022-11-28T03:23:40.493Z,87.86
2022-11-28T03:26:16.466Z,87.98
2022-11-28T03:28:47.487Z,88.76
2022-11-28T03:31:20.074Z,88.07
2022-11-28T03:33:59.863Z,88.80
2022-11-28T03:36:29.095Z,88.32
2022-11-28T03:39:03.916Z,88.22
2022-11-28T03:41:43.207Z,88.61
2022-11-28T03:44:21.046Z,88.32
2022-11-28T03:46:49.264Z,88.06
2022-11-28T03:49:25.806Z,87.90
2022-11-28T03:51:59.715Z,88.31
2022-11-28T03:54:41.530Z,88.42
2022-11-28T03:57:32.085Z,88.17
2022-11-28T04:00:07.591Z,87.82
2022-11-28T04:02:40.503Z,87.60
2022-11-28T04:05:26.182Z,86.78
2022-11-28T04:07:57.334Z,87.63
2022-11-28T04:10:34.567Z,87.38
2022-11-28T04:13:23.216Z,86.33
2022-11-28T04:16:11.781Z,87.29
2022-11-28T04:18:47.672Z,87.30
2022-11-28T04:21:50.005Z,87.16
2022-11-28T04:24:24.905Z,86.47
2022-11-28T04:27:00.732Z,87.27
2022-11-28T04:29:34.554Z,86.79
2022-11-28T04:32:04.313Z,86.75
2022-11-28T04:34:35.090Z,87.89
2022-11-28T04:37:09.611Z,86.89
2022-11-28T04:39:39.106Z,88.11
2022-11-28T04:42:12.346Z,88.06
2022-11-28T04:44:51.190Z,87.81
2022-11-28T04:47:18.866Z,88.15
2022-11-28T04:49:45.936Z,87.80
2022-11-28T04:52:25.066Z,87.56
2022-11-28T04:54:57.803Z,87.66
2022-11-28T04:57:33.063Z,87.00
2022-11-28T05:00:05.270Z,87.23
2022-11-28T05:02:33.459Z,86.71
2022-11-28T05:05:00.726Z,85.92
2022-11-28T05:07:27.660Z,87.15
2022-11-28T05:09:55.952Z,85.97
2022-11-28T05:12:22.834Z,86.28
2022-11-28T05:14:49.740Z,87.01
2022-11-28T05:17:16.634Z,85.96
2022-11-28T05:19:43.589Z,86.74
2022-11-28T05:22:10.503Z,87.35
2022-11-28T05:24:37.957Z,87.01
2022-11-28T05:27:04.919Z,86.94
2022-11-28T05:29:31.881Z,87.24
2022-11-28T05:31:58.795Z,86.33
2022-11-28T05:34:25.726Z,87.40
2022-11-28T05:36:52.599Z,86.89
2022-11-28T05:39:19.506Z,86.43
2022-11-28T05:41:46.431Z,86.11
2022-11-28T05:44:13.324Z,86.34
2022-11-28T05:46:40.298Z,86.97
2022-11-28T05:49:07.227Z,87.20
2022-11-28T05:51:34.085Z,87.12
2022-11-28T05:54:00.995Z,86.77
2022-11-28T05:56:27.885Z,86.27
2022-11-28T05:58:55.029Z,87.02
2022-11-28T06:01:27.756Z,87.32
2022-11-28T06:04:00.910Z,86.62
2022-11-28T06:06:30.748Z,85.74
2022-11-28T06:08:58.432Z,86.61
2022-11-28T06:11:27.897Z,86.19
2022-11-28T06:13:55.230Z,87.05
2022-11-28T06:16:25.569Z,87.51
2022-11-28T06:18:57.538Z,87.48
2022-11-28T06:21:25.715Z,87.73
2022-11-28T06:23:52.736Z,87.01
2022-11-28T06:26:23.219Z,86.92
2022-11-28T06:28:50.404Z,88.06
2022-11-28T06:31:20.228Z,87.76
2022-11-28T06:33:47.561Z,87.60
2022-11-28T06:36:16.749Z,88.30
2022-11-28T06:38:44.068Z,87.49
2022-11-28T06:41:45.353Z,88.55
2022-11-28T06:44:16.410Z,88.33
2022-11-28T06:46:44.310Z,88.64
2022-11-28T06:49:14.092Z,88.66
2022-11-28T06:51:43.091Z,89.03
2022-11-28T06:54:09.995Z,88.63
2022-11-28T06:56:36.981Z,88.59
2022-11-28T06:59:04.160Z,88.49
2022-11-28T07:01:32.726Z,87.20
2022-11-28T07:03:59.837Z,89.32
2022-11-28T07:06:28.564Z,87.52
2022-11-28T07:08:59.167Z,87.93
2022-11-28T07:11:31.745Z,87.83
2022-11-28T07:14:01.838Z,87.25
2022-11-28T07:16:31.973Z,87.04
2022-11-28T07:18:59.884Z,87.68
2022-11-28T07:21:28.580Z,86.97
2022-11-28T07:23:55.541Z,86.78
2022-11-28T07:26:23.398Z,87.07
2022-11-28T07:28:51.574Z,86.46
2022-11-28T07:31:21.527Z,86.13
2022-11-28T07:33:50.595Z,86.25
2022-11-28T07:36:18.965Z,85.99
2022-11-28T07:38:50.952Z,85.67
2022-11-28T07:41:23.677Z,85.81
2022-11-28T07:43:58.715Z,84.98
2022-11-28T07:46:26.822Z,83.91
2022-11-28T07:48:54.432Z,84.64
2022-11-28T07:51:28.721Z,84.58
2022-11-28T07:53:56.133Z,84.64
2022-11-28T07:56:31.906Z,84.55
2022-11-28T07:59:07.543Z,85.65
2022-11-28T08:01:36.332Z,85.65
2022-11-28T08:04:06.090Z,84.35
2022-11-28T08:06:37.169Z,84.85
2022-11-28T08:09:04.659Z,85.81
2022-11-28T08:11:32.896Z,84.53
2022-11-28T08:14:00.648Z,84.56
2022-11-28T08:16:29.193Z,85.29
2022-11-28T08:18:56.800Z,84.55
2022-11-28T08:21:26.949Z,83.94
2022-11-28T08:23:56.041Z,83.86
2022-11-28T08:26:28.990Z,83.84
2022-11-28T08:28:58.312Z,82.99
2022-11-28T08:31:32.191Z,81.57
2022-11-28T08:34:00.913Z,82.47
2022-11-28T08:36:29.382Z,82.42
2022-11-28T08:39:16.690Z,82.12
2022-11-28T08:41:44.450Z,82.25
2022-11-28T08:44:11.331Z,80.76
2022-11-28T08:46:38.256Z,82.57
2022-11-28T08:49:05.164Z,82.36
2022-11-28T08:51:32.445Z,82.02
2022-11-28T08:54:00.315Z,82.25
2022-11-28T08:56:28.106Z,82.92
2022-11-28T08:58:55.472Z,82.41
2022-11-28T09:01:24.957Z,82.82
2022-11-28T09:03:53.914Z,83.65
2022-11-28T09:06:22.410Z,82.64
2022-11-28T09:08:50.357Z,82.63
2022-11-28T09:11:19.264Z,80.31
2022-11-28T09:13:46.689Z,80.96
2022-11-28T09:16:14.645Z,80.76
2022-11-28T09:18:41.709Z,80.88
2022-11-28T09:21:11.851Z,80.37
2022-11-28T09:23:41.330Z,80.70
2022-11-28T09:26:13.247Z,78.93
2022-11-28T09:28:40.271Z,80.31
2022-11-28T09:31:08.402Z,78.63
2022-11-28T09:33:36.553Z,79.05
2022-11-28T09:36:12.552Z,77.83
2022-11-28T09:38:39.842Z,78.22
2022-11-28T09:41:28.637Z,79.34
2022-11-28T09:44:09.238Z,78.54
2022-11-28T09:46:39.060Z,78.22
2022-11-28T09:49:41.055Z,78.04
2022-11-28T09:52:42.914Z,77.77
2022-11-28T09:55:19.715Z,77.94
2022-11-28T09:57:49.422Z,77.28
2022-11-28T10:00:23.018Z,77.58
2022-11-28T10:03:17.973Z,76.94
2022-11-28T10:06:15.909Z,75.96
2022-11-28T10:08:57.969Z,77.41
2022-11-28T10:11:35.532Z,76.01
2022-11-28T10:14:40.530Z,77.03
2022-11-28T10:17:25.739Z,76.44
2022-11-28T10:20:17.084Z,75.25
2022-11-28T10:22:48.717Z,75.69
2022-11-28T10:25:43.295Z,75.15
2022-11-28T10:28:23.236Z,76.34
2022-11-28T10:31:00.064Z,75.16
2022-11-28T10:33:41.476Z,75.10
2022-11-28T10:36:18.940Z,74.89
2022-11-28T10:38:45.856Z,74.89
2022-11-28T10:41:25.600Z,75.46
2022-11-28T10:44:21.192Z,72.79
2022-11-28T10:46:57.199Z,74.20
2022-11-28T10:49:26.971Z,73.10
2022-11-28T10:52:14.930Z,73.73
2022-11-28T10:55:02.866Z,74.83
2022-11-28T10:58:09.819Z,74.79
2022-11-28T11:00:38.391Z,74.69
2022-11-28T11:03:11.911Z,73.59
2022-11-28T11:05:38.889Z,71.89
2022-11-28T11:08:23.854Z,72.00
2022-11-28T11:11:03.020Z,74.03
2022-11-28T11:13:33.035Z,73.24
2022-11-28T11:16:10.669Z,73.12
2022-11-28T11:18:52.529Z,73.12
2022-11-28T11:21:25.920Z,70.29
2022-11-28T11:24:31.625Z,71.78
2022-11-28T11:27:14.108Z,71.61
2022-11-28T11:29:41.638Z,72.14
2022-11-28T11:32:22.062Z,69.47
2022-11-28T11:34:49.674Z,70.30
2022-11-28T11:37:38.740Z,70.65
2022-11-28T11:40:29.302Z,70.89
2022-11-28T11:42:59.620Z,71.67
2022-11-28T11:45:30.285Z,70.26
2022-11-28T11:47:58.231Z,72.50
2022-11-28T11:50:28.622Z,71.56
2022-11-28T11:53:02.403Z,71.77
2022-11-28T11:55:32.028Z,70.37
2022-11-28T11:58:05.682Z,67.89
2022-11-28T12:00:40.693Z,67.86
2022-11-28T12:03:39.426Z,66.71
2022-11-28T12:06:33.284Z,66.61
2022-11-28T12:09:08.455Z,66.21
2022-11-28T12:11:46.539Z,68.23
2022-11-28T12:14:34.510Z,67.11
2022-11-28T12:17:48.823Z,67.42
2022-11-28T12:20:34.801Z,66.70
2022-11-28T12:23:23.515Z,68.47
2022-11-28T12:26:09.189Z,70.11
2022-11-28T12:29:00.408Z,70.69
2022-11-28T12:32:01.106Z,71.25
2022-11-28T12:34:49.807Z,71.36
2022-11-28T12:41:12.527Z,70.52
2022-11-28T12:43:40.101Z,71.10
2022-11-28T12:46:23.052Z,70.96
2022-11-28T12:49:03.693Z,71.30
2022-11-28T12:51:55.113Z,72.05
2022-11-28T12:55:01.142Z,72.51
2022-11-28T12:57:30.949Z,71.27
2022-11-28T13:00:08.724Z,71.96
2022-11-28T13:02:50.362Z,72.52
2022-11-28T13:05:44.550Z,73.16
2022-11-28T13:08:49.355Z,73.59
2022-11-28T13:11:19.160Z,73.31
2022-11-28T13:13:56.607Z,73.47
2022-11-28T13:16:45.858Z,73.64
2022-11-28T13:19:15.630Z,73.69
2022-11-28T13:21:51.336Z,72.98
2022-11-28T13:24:39.388Z,73.52
2022-11-28T13:27:22.359Z,71.75
2022-11-28T13:30:28.950Z,72.60
2022-11-28T13:33:07.427Z,73.10
2022-11-28T13:35:35.499Z,73.73
2022-11-28T13:38:44.131Z,73.09
2022-11-28T13:41:52.835Z,71.00
2022-11-28T13:44:23.348Z,71.10
2022-11-28T13:46:51.508Z,71.12
2022-11-28T13:49:29.791Z,70.78
2022-11-28T13:52:18.540Z,70.87
2022-11-28T13:54:52.714Z,71.25
2022-11-28T13:57:22.605Z,70.23
2022-11-28T13:59:54.336Z,69.04
2022-11-28T14:02:27.953Z,68.57
2022-11-28T14:04:55.012Z,68.74
2022-11-28T14:07:29.283Z,69.38
2022-11-28T14:10:30.261Z,69.68
2022-11-28T14:13:03.450Z,70.38
2022-11-28T14:15:52.276Z,70.45
2022-11-28T14:19:00.522Z,70.48
2022-11-28T14:21:43.173Z,69.98
2022-11-28T14:24:25.760Z,70.12
2022-11-28T14:27:02.492Z,70.95
2022-11-28T14:29:37.219Z,70.89
2022-11-28T14:34:52.444Z,71.59
2022-11-28T14:37:22.374Z,73.10
2022-11-28T14:39:50.681Z,72.54
2022-11-28T14:42:37.236Z,73.37
2022-11-28T14:45:33.355Z,72.95
2022-11-28T14:48:22.077Z,73.19
2022-11-28T14:51:00.645Z,75.12
2022-11-28T14:53:34.644Z,74.38
2022-11-28T14:56:14.942Z,74.94
2022-11-28T14:58:49.679Z,75.32
2022-11-28T15:01:29.131Z,74.70
2022-11-28T15:04:04.629Z,76.36
2022-11-28T15:06:36.336Z,75.71
2022-11-28T15:09:14.680Z,75.77
2022-11-28T15:12:01.640Z,76.61
2022-11-28T15:14:32.210Z,77.67
2022-11-28T15:17:10.920Z,77.90
2022-11-28T15:19:49.606Z,78.32
2022-11-28T15:22:38.815Z,78.93
2022-11-28T15:25:18.817Z,79.60
2022-11-28T15:27:45.834Z,80.87
2022-11-28T15:30:26.905Z,81.70
2022-11-28T15:32:59.534Z,82.07
2022-11-28T15:35:28.039Z,81.89
2022-11-28T15:37:58.273Z,81.96
2022-11-28T15:40:32.837Z,81.99
2022-11-28T15:43:01.363Z,82.45
2022-11-28T15:45:35.917Z,83.50
2022-11-28T15:48:04.874Z,83.50
2022-11-28T15:50:34.167Z,84.63
2022-11-28T15:53:14.734Z,84.71
2022-11-28T15:55:41.759Z,84.87
2022-11-28T15:58:25.697Z,85.07
2022-11-28T16:01:17.336Z,85.02
2022-11-28T16:04:02.333Z,86.21
2022-11-28T16:06:34.290Z,85.79
2022-11-28T16:09:24.554Z,85.87
2022-11-28T16:11:54.080Z,86.20
2022-11-28T16:14:38.095Z,86.97
2022-11-28T16:17:29.881Z,86.88
2022-11-28T16:19:57.668Z,86.58
2022-11-28T16:22:32.821Z,87.00
2022-11-28T16:25:24.790Z,86.67
2022-11-28T16:27:57.570Z,87.17
2022-11-28T16:30:41.652Z,87.32
2022-11-28T16:33:40.963Z,87.56
2022-11-28T16:36:16.944Z,87.63
2022-11-28T16:38:45.385Z,88.34
2022-11-28T16:41:24.230Z,88.22
2022-11-28T16:44:05.219Z,88.11
2022-11-28T16:46:37.562Z,88.52
2022-11-28T16:49:07.364Z,88.78
2022-11-28T16:51:39.834Z,88.49
2022-11-28T16:54:30.380Z,88.29
2022-11-28T16:57:09.106Z,88.76
2022-11-28T16:59:36.536Z,88.44
2022-11-28T17:02:04.309Z,88.10
2022-11-28T17:04:31.612Z,88.45
2022-11-28T17:07:05.355Z,88.89
2022-11-28T17:09:34.104Z,88.85
2022-11-28T17:12:07.704Z,88.59
2022-11-28T17:14:35.278Z,89.01
2022-11-28T17:17:02.126Z,89.19
2022-11-28T17:19:29.333Z,89.69
2022-11-28T17:21:59.478Z,89.96
2022-11-28T17:24:29.688Z,89.65
2022-11-28T17:26:56.573Z,90.21
2022-11-28T17:29:25.485Z,90.46
2022-11-28T17:31:55.384Z,90.72
2022-11-28T17:34:27.832Z,90.39
2022-11-28T17:36:54.713Z,90.42
2022-11-28T17:39:21.678Z,91.00
2022-11-28T17:41:49.459Z,90.82
2022-11-28T17:44:28.289Z,91.22
2022-11-28T17:46:56.826Z,91.52
2022-11-28T17:49:24.430Z,92.09
2022-11-28T17:51:52.840Z,91.35
2022-11-28T17:54:22.284Z,92.05
2022-11-28T17:56:50.778Z,91.42
2022-11-28T17:59:19.962Z,92.04
2022-11-28T18:01:47.673Z,92.03
2022-11-28T18:04:14.768Z,92.46
2022-11-28T18:06:46.223Z,92.55
2022-11-28T18:09:14.180Z,92.45
2022-11-28T18:11:42.426Z,92.13
2022-11-28T18:14:09.884Z,91.96
2022-11-28T18:16:37.179Z,91.64
2022-11-28T18:19:04.856Z,92.36
2022-11-28T18:21:32.642Z,91.74
2022-11-28T18:23:59.575Z,93.26
2022-11-28T18:26:27.261Z,93.10
2022-11-28T18:28:55.004Z,93.52
2022-11-28T18:31:25.281Z,93.10
2022-11-28T18:33:55.184Z,94.03
2022-11-28T18:36:27.350Z,93.47
2022-11-28T18:38:57.176Z,94.44
2022-11-28T18:41:24.678Z,93.48
2022-11-28T18:44:03.656Z,93.93
2022-11-28T18:46:31.693Z,93.77
2022-11-28T18:48:58.934Z,94.06
2022-11-28T18:51:28.541Z,94.64
2022-11-28T18:53:56.683Z,95.08
2022-11-28T18:56:25.029Z,94.40
2022-11-28T18:58:54.129Z,94.64
2022-11-28T19:01:29.268Z,93.75
2022-11-28T19:03:59.344Z,93.33
2022-11-28T19:06:26.707Z,93.88
2022-11-28T19:08:56.157Z,94.53
2022-11-28T19:11:23.817Z,94.74
2022-11-28T19:13:53.917Z,95.34
2022-11-28T19:16:26.657Z,94.78
2022-11-28T19:18:53.999Z,95.10
2022-11-28T19:21:23.592Z,94.94
2022-11-28T19:23:52.603Z,95.52
2022-11-28T19:26:22.283Z,95.81
2022-11-28T19:28:50.019Z,94.99
2022-11-28T19:31:29.489Z,94.23
2022-11-28T19:34:07.262Z,94.92
2022-11-28T19:36:41.115Z,93.87
2022-11-28T19:39:09.854Z,93.94
2022-11-28T19:41:36.731Z,95.57
2022-11-28T19:44:03.718Z,95.09
2022-11-28T19:46:35.402Z,95.27
2022-11-28T19:49:02.842Z,95.96
2022-11-28T19:51:29.746Z,95.87
2022-11-28T19:54:02.705Z,95.96
2022-11-28T19:56:31.543Z,95.72
2022-11-28T19:58:59.181Z,94.76
2022-11-28T20:01:28.332Z,95.65
2022-11-28T20:03:55.351Z,94.10
2022-11-28T20:06:25.515Z,95.21
2022-11-28T20:08:54.386Z,95.78
2022-11-28T20:11:27.446Z,95.41
2022-11-28T20:14:00.354Z,95.65
2022-11-28T20:16:29.923Z,95.81
2022-11-28T20:18:57.302Z,96.65
2022-11-28T20:21:24.280Z,95.64
2022-11-28T20:23:53.951Z,94.50
2022-11-28T20:26:24.169Z,94.97
2022-11-28T20:28:51.062Z,93.96
2022-11-28T20:31:22.409Z,94.80
2022-11-28T20:33:51.928Z,93.47
2022-11-28T20:36:21.183Z,94.54
2022-11-28T20:38:49.373Z,92.75
2022-11-28T20:41:18.967Z,93.69
2022-11-28T20:43:46.559Z,93.34
2022-11-28T20:46:28.801Z,93.62
2022-11-28T20:48:58.887Z,93.34
2022-11-28T20:51:27.938Z,93.35
2022-11-28T20:53:56.907Z,93.26
2022-11-28T20:56:26.877Z,93.13
2022-11-28T20:58:53.776Z,93.32
2022-11-28T21:01:24.189Z,93.91
2022-11-28T21:03:51.697Z,93.25
2022-11-28T21:06:20.334Z,94.53
2022-11-28T21:08:47.617Z,93.48
2022-11-28T21:11:30.954Z,93.81
2022-11-28T21:14:05.895Z,95.66
2022-11-28T21:16:34.474Z,94.98
2022-11-28T21:19:09.129Z,96.12
2022-11-28T21:21:38.577Z,96.27
2022-11-28T21:24:08.611Z,95.51
2022-11-28T21:26:40.864Z,94.76
2022-11-28T21:29:11.519Z,95.52
2022-11-28T21:31:42.668Z,94.49
2022-11-28T21:34:17.879Z,94.83
2022-11-28T21:36:45.515Z,95.03
2022-11-28T21:39:18.919Z,96.34
2022-11-28T21:41:46.478Z,95.46
2022-11-28T21:44:13.481Z,95.69
2022-11-28T21:46:40.497Z,95.49
2022-11-28T21:49:07.557Z,95.18
2022-11-28T21:51:34.460Z,96.79
2022-11-28T21:54:02.336Z,95.88
2022-11-28T21:56:29.253Z,95.92
2022-11-28T21:58:56.284Z,94.53
2022-11-28T22:01:23.317Z,93.25
2022-11-28T22:03:50.339Z,93.65
2022-11-28T22:06:22.918Z,91.76
2022-11-28T22:08:51.649Z,91.88
2022-11-28T22:11:20.475Z,93.43
2022-11-28T22:13:49.225Z,93.52
2022-11-28T22:16:27.699Z,95.54
2022-11-28T22:18:57.898Z,95.38
2022-11-28T22:24:12.501Z,93.88
2022-11-28T22:26:39.930Z,94.98
2022-11-28T22:29:07.046Z,93.76
2022-11-28T22:31:34.123Z,95.11
2022-11-28T22:34:01.132Z,94.63
2022-11-28T22:36:28.088Z,93.51
2022-11-28T22:38:57.268Z,94.47
2022-11-28T22:41:28.936Z,95.00
2022-11-28T22:44:00.574Z,94.42
2022-11-28T22:46:28.199Z,94.65
2022-11-28T22:48:55.392Z,94.12
2022-11-28T22:51:25.706Z,92.83
2022-11-28T22:53:57.907Z,93.19
2022-11-28T22:56:25.515Z,92.79
2022-11-28T22:58:53.054Z,94.60
2022-11-28T23:01:24.313Z,94.47
2022-11-28T23:03:52.210Z,93.49
2022-11-28T23:06:21.650Z,93.90
2022-11-28T23:08:49.423Z,93.79
2022-11-28T23:11:23.018Z,93.30
2022-11-28T23:13:50.963Z,92.58
2022-11-28T23:16:45.333Z,92.26
2022-11-28T23:19:15.405Z,91.53
2022-11-28T23:21:44.617Z,92.34
2022-11-28T23:24:17.977Z,92.29
2022-11-28T23:26:45.116Z,90.78
2022-11-28T23:29:12.075Z,90.91
2022-11-28T23:31:42.033Z,92.41
2022-11-28T23:34:10.306Z,92.43
2022-11-28T23:36:42.502Z,91.99
2022-11-28T23:39:15.994Z,93.03
2022-11-28T23:41:43.048Z,92.85
2022-11-28T23:44:14.301Z,93.89
2022-11-28T23:46:41.455Z,94.26
2022-11-28T23:49:09.199Z,94.93
2022-11-28T23:51:36.233Z,95.56
2022-11-28T23:54:03.192Z,95.08
2022-11-28T23:56:33.078Z,95.73
2022-11-28T23:59:02.077Z,94.83
